createdAt,value
2023-04-20T00:00:11.794Z,44.00
2023-04-20T00:02:40.419Z,43.28
2023-04-20T00:05:10.238Z,42.15
2023-04-20T00:07:41.884Z,45.97
2023-04-20T00:10:11.509Z,40.75
2023-04-20T00:12:40.534Z,45.28
2023-04-20T00:15:09.285Z,45.05
2023-04-20T00:17:38.524Z,43.45
2023-04-20T00:20:10.142Z,42.40
2023-04-20T00:22:41.262Z,43.80
2023-04-20T00:25:10.639Z,41.45
2023-04-20T00:27:39.476Z,36.85
2023-04-20T00:30:10.958Z,35.92
2023-04-20T00:32:39.715Z,40.58
2023-04-20T00:35:08.648Z,41.05
2023-04-20T00:37:36.988Z,39.50
2023-04-20T00:40:09.757Z,39.70
2023-04-20T00:42:41.016Z,37.53
2023-04-20T00:45:10.108Z,36.40
2023-04-20T00:47:38.878Z,39.20
2023-04-20T00:50:10.725Z,36.15
2023-04-20T00:52:39.651Z,40.65
2023-04-20T00:55:10.665Z,33.75
2023-04-20T00:57:39.071Z,35.22
2023-04-20T01:00:10.303Z,35.42
2023-04-20T01:02:39.116Z,36.88
2023-04-20T01:05:10.542Z,37.38
2023-04-20T01:07:39.084Z,35.85
2023-04-20T01:10:11.840Z,36.88
2023-04-20T01:12:40.516Z,37.03
2023-04-20T01:15:10.732Z,32.38
2023-04-20T01:17:39.739Z,35.22
2023-04-20T01:20:11.658Z,37.13
2023-04-20T01:22:46.364Z,34.15
2023-04-20T01:25:15.869Z,32.63
2023-04-20T01:27:46.946Z,38.00
2023-04-20T01:30:17.428Z,36.33
2023-04-20T01:32:45.852Z,34.10
2023-04-20T01:35:14.083Z,39.28
2023-04-20T01:37:43.254Z,35.45
2023-04-20T01:40:14.551Z,35.92
2023-04-20T01:42:42.589Z,38.13
2023-04-20T01:45:12.361Z,35.67
2023-04-20T01:47:41.055Z,33.42
2023-04-20T01:50:10.143Z,34.05
2023-04-20T01:52:39.380Z,33.50
2023-04-20T01:55:08.861Z,35.17
2023-04-20T01:57:38.457Z,35.45
2023-04-20T02:00:10.022Z,33.95
2023-04-20T02:02:38.745Z,35.85
2023-04-20T02:05:09.512Z,35.22
2023-04-20T02:07:41.059Z,36.05
2023-04-20T02:10:11.597Z,31.98
2023-04-20T02:12:43.434Z,34.67
2023-04-20T02:15:13.311Z,33.70
2023-04-20T02:17:42.381Z,33.13
2023-04-20T02:20:12.972Z,33.60
2023-04-20T02:22:41.416Z,35.45
2023-04-20T02:25:10.547Z,33.33
2023-04-20T02:27:38.640Z,35.67
2023-04-20T02:30:10.495Z,35.33
2023-04-20T02:32:39.682Z,36.88
2023-04-20T02:35:09.534Z,32.92
2023-04-20T02:37:38.175Z,32.92
2023-04-20T02:40:10.125Z,31.48
2023-04-20T02:42:41.304Z,33.15
2023-04-20T02:45:13.339Z,32.60
2023-04-20T02:47:42.992Z,38.25
2023-04-20T02:50:12.558Z,31.35
2023-04-20T02:52:43.304Z,33.53
2023-04-20T02:55:11.747Z,30.75
2023-04-20T02:57:40.446Z,28.42
2023-04-20T03:00:13.915Z,31.83
2023-04-20T03:02:44.480Z,30.02
2023-04-20T03:05:13.387Z,33.42
2023-04-20T03:07:41.717Z,30.88
2023-04-20T03:10:11.200Z,30.75
2023-04-20T03:12:40.217Z,28.83
2023-04-20T03:15:11.325Z,30.35
2023-04-20T03:17:41.008Z,31.42
2023-04-20T03:20:11.476Z,32.28
2023-04-20T03:22:41.456Z,32.05
2023-04-20T03:25:10.285Z,30.08
2023-04-20T03:27:38.557Z,33.50
2023-04-20T03:30:09.877Z,29.80
2023-04-20T03:32:43.171Z,32.95
2023-04-20T03:35:13.037Z,32.42
2023-04-20T03:37:42.364Z,33.92
2023-04-20T03:40:12.869Z,34.42
2023-04-20T03:42:43.408Z,34.33
2023-04-20T03:45:13.192Z,31.00
2023-04-20T03:47:49.883Z,33.05
2023-04-20T03:50:18.379Z,33.05
2023-04-20T03:52:48.788Z,35.20
2023-04-20T03:55:17.456Z,34.17
2023-04-20T03:57:47.123Z,34.47
2023-04-20T04:00:16.417Z,34.60
2023-04-20T04:02:48.905Z,34.97
2023-04-20T04:05:18.262Z,30.70
2023-04-20T04:07:49.555Z,36.33
2023-04-20T04:10:19.011Z,35.47
2023-04-20T04:12:47.524Z,35.30
2023-04-20T04:15:15.946Z,35.50
2023-04-20T04:17:47.226Z,34.97
2023-04-20T04:20:17.129Z,35.80
2023-04-20T04:22:45.332Z,35.25
2023-04-20T04:25:15.124Z,33.58
2023-04-20T04:27:43.919Z,35.53
2023-04-20T04:30:15.558Z,39.60
2023-04-20T04:32:47.772Z,36.55
2023-04-20T04:35:18.088Z,38.67
2023-04-20T04:37:46.198Z,39.13
2023-04-20T04:40:18.642Z,39.70
2023-04-20T04:42:49.333Z,45.42
2023-04-20T04:45:22.273Z,39.22
2023-04-20T04:47:54.870Z,40.03
2023-04-20T04:50:26.177Z,40.25
2023-04-20T04:55:24.940Z,48.72
2023-04-20T04:57:54.553Z,51.95
2023-04-20T05:00:25.392Z,44.80
2023-04-20T05:02:54.263Z,49.10
2023-04-20T05:05:22.696Z,49.88
2023-04-20T05:07:52.997Z,41.97
2023-04-20T05:10:21.453Z,45.13
2023-04-20T05:12:49.888Z,49.13
2023-04-20T05:15:18.235Z,43.25
2023-04-20T05:17:46.328Z,46.97
2023-04-20T05:20:14.532Z,43.38
2023-04-20T05:22:43.538Z,44.05
2023-04-20T05:25:15.020Z,37.65
2023-04-20T05:27:43.850Z,51.85
2023-04-20T05:30:21.527Z,45.53
2023-04-20T05:32:52.185Z,48.78
2023-04-20T05:35:21.629Z,45.95
2023-04-20T05:37:50.462Z,46.60
2023-04-20T05:40:20.339Z,48.28
2023-04-20T05:42:49.588Z,50.75
2023-04-20T05:45:17.743Z,47.22
2023-04-20T05:47:53.935Z,46.50
2023-04-20T05:50:23.226Z,46.33
2023-04-20T05:52:53.584Z,46.65
2023-04-20T05:55:23.484Z,50.08
2023-04-20T05:57:53.116Z,46.47
2023-04-20T06:00:24.510Z,46.65
2023-04-20T06:02:59.610Z,49.53
2023-04-20T06:05:28.178Z,54.67
2023-04-20T06:07:57.113Z,43.10
2023-04-20T06:10:32.591Z,46.80
2023-04-20T06:13:01.337Z,43.17
2023-04-20T06:15:30.065Z,45.40
2023-04-20T06:17:58.738Z,46.13
2023-04-20T06:20:28.574Z,43.45
2023-04-20T06:22:57.663Z,46.20
2023-04-20T06:25:26.332Z,48.97
2023-04-20T06:27:55.930Z,41.45
2023-04-20T06:30:24.498Z,43.38
2023-04-20T06:32:54.594Z,45.65
2023-04-20T06:35:26.858Z,45.10
2023-04-20T06:40:27.993Z,44.17
2023-04-20T06:42:57.732Z,45.25
2023-04-20T06:45:26.409Z,39.33
2023-04-20T06:47:55.204Z,45.60
2023-04-20T06:50:28.997Z,41.17
2023-04-20T06:52:59.643Z,41.45
2023-04-20T06:55:29.904Z,39.28
2023-04-20T06:57:59.482Z,40.30
2023-04-20T07:00:28.486Z,43.13
2023-04-20T07:02:58.372Z,40.80
2023-04-20T07:05:28.743Z,36.30
2023-04-20T07:07:58.150Z,37.85
2023-04-20T07:10:26.715Z,36.53
2023-04-20T07:12:55.485Z,34.40
2023-04-20T07:15:26.354Z,38.05
2023-04-20T07:17:55.082Z,33.38
2023-04-20T07:20:23.287Z,33.53
2023-04-20T07:22:51.357Z,32.55
2023-04-20T07:25:19.551Z,35.90
2023-04-20T07:27:48.036Z,33.13
2023-04-20T07:30:17.092Z,35.15
2023-04-20T07:32:51.612Z,31.20
2023-04-20T07:35:20.068Z,31.60
2023-04-20T07:37:48.266Z,39.47
2023-04-20T07:40:17.222Z,35.42
2023-04-20T07:42:46.364Z,35.35
2023-04-20T07:45:19.503Z,35.75
2023-04-20T07:47:51.591Z,36.92
2023-04-20T07:50:19.866Z,33.15
2023-04-20T07:52:48.157Z,35.20
2023-04-20T07:55:17.334Z,34.33
2023-04-20T07:57:46.580Z,36.95
2023-04-20T08:00:16.254Z,31.10
2023-04-20T08:02:44.665Z,25.48
2023-04-20T08:05:16.177Z,34.40
2023-04-20T08:07:44.661Z,32.85
2023-04-20T08:10:15.327Z,30.63
2023-04-20T08:12:43.366Z,30.25
2023-04-20T08:15:12.403Z,32.00
2023-04-20T08:17:40.900Z,31.77
2023-04-20T08:20:11.409Z,34.67
2023-04-20T08:22:41.794Z,34.53
2023-04-20T08:25:10.023Z,33.83
2023-04-20T08:27:39.381Z,33.97
2023-04-20T08:30:08.813Z,29.92
2023-04-20T08:32:36.982Z,28.45
2023-04-20T08:35:09.785Z,27.48
2023-04-20T08:37:38.693Z,30.33
2023-04-20T08:40:11.424Z,32.03
2023-04-20T08:42:39.869Z,30.60
2023-04-20T08:45:09.116Z,25.77
2023-04-20T08:47:38.229Z,28.35
2023-04-20T08:50:13.883Z,28.33
2023-04-20T08:52:42.541Z,26.40
2023-04-20T08:55:12.710Z,29.83
2023-04-20T08:57:41.981Z,24.55
2023-04-20T09:00:13.593Z,23.45
2023-04-20T09:02:52.561Z,28.08
2023-04-20T09:05:28.299Z,22.63
2023-04-20T09:07:58.209Z,23.08
2023-04-20T09:10:40.928Z,23.25
2023-04-20T09:13:09.211Z,24.95
2023-04-20T09:15:37.697Z,24.58
2023-04-20T09:18:14.040Z,25.05
2023-04-20T09:20:45.715Z,23.17
2023-04-20T09:23:16.179Z,22.05
2023-04-20T09:25:53.092Z,26.88
2023-04-20T09:28:21.847Z,20.17
2023-04-20T09:30:51.856Z,25.40
2023-04-20T09:33:20.445Z,24.10
2023-04-20T09:35:49.223Z,24.20
2023-04-20T09:41:12.701Z,23.95
2023-04-20T09:43:43.186Z,27.08
2023-04-20T09:46:12.365Z,24.33
2023-04-20T09:48:41.881Z,25.10
2023-04-20T09:51:11.422Z,29.02
2023-04-20T09:53:40.118Z,28.67
2023-04-20T09:56:08.531Z,27.45
2023-04-20T09:58:39.564Z,25.85
2023-04-20T10:01:11.148Z,24.92
2023-04-20T10:03:39.493Z,24.85
2023-04-20T10:06:10.852Z,28.23
2023-04-20T10:08:42.468Z,25.40
2023-04-20T10:11:11.326Z,19.70
2023-04-20T10:13:40.848Z,26.00
2023-04-20T10:16:19.216Z,20.27
2023-04-20T10:18:57.852Z,25.20
2023-04-20T10:21:26.067Z,27.88
2023-04-20T10:23:56.455Z,24.95
2023-04-20T10:26:38.460Z,25.23
2023-04-20T10:29:12.497Z,30.77
2023-04-20T10:31:42.313Z,33.35
2023-04-20T10:34:13.416Z,28.30
2023-04-20T10:36:49.077Z,22.83
2023-04-20T10:39:22.287Z,24.25
2023-04-20T10:41:54.448Z,26.85
2023-04-20T10:44:25.609Z,23.02
2023-04-20T10:46:54.183Z,28.15
2023-04-20T10:49:29.782Z,24.95
2023-04-20T10:51:58.209Z,26.17
2023-04-20T10:54:29.482Z,26.13
2023-04-20T10:56:57.681Z,24.73
2023-04-20T10:59:30.334Z,23.98
2023-04-20T11:02:01.399Z,24.88
2023-04-20T11:04:44.730Z,22.63
2023-04-20T11:07:16.994Z,26.38
2023-04-20T11:12:14.730Z,28.45
2023-04-20T11:14:53.915Z,24.48
2023-04-20T11:17:34.124Z,26.65
2023-04-20T11:20:11.054Z,27.20
2023-04-20T11:23:00.107Z,25.73
2023-04-20T11:25:29.326Z,21.73
2023-04-20T11:28:08.495Z,23.77
2023-04-20T11:30:43.981Z,22.65
2023-04-20T11:33:12.576Z,23.60
2023-04-20T11:35:43.976Z,23.63
2023-04-20T11:38:12.890Z,26.67
2023-04-20T11:40:41.775Z,23.70
2023-04-20T11:43:10.240Z,21.98
2023-04-20T11:45:41.773Z,23.13
2023-04-20T11:48:17.581Z,21.00
2023-04-20T11:50:46.228Z,19.33
2023-04-20T11:53:18.458Z,21.73
2023-04-20T11:55:49.225Z,18.95
2023-04-20T11:58:17.731Z,19.42
2023-04-20T12:00:46.282Z,22.15
2023-04-20T12:03:16.150Z,22.05
2023-04-20T12:05:45.010Z,19.98
2023-04-20T12:08:17.310Z,21.52
2023-04-20T12:10:47.211Z,19.38
2023-04-20T12:13:16.115Z,22.00
2023-04-20T12:15:44.322Z,21.27
2023-04-20T12:18:13.788Z,19.08
2023-04-20T12:20:43.399Z,18.92
2023-04-20T12:23:11.859Z,20.33
2023-04-20T12:25:40.277Z,20.05
2023-04-20T12:28:09.585Z,21.42
2023-04-20T12:30:40.838Z,20.60
2023-04-20T12:33:10.249Z,19.10
2023-04-20T12:35:38.738Z,20.10
2023-04-20T12:38:08.859Z,16.60
2023-04-20T12:40:37.529Z,18.92
2023-04-20T12:43:05.817Z,17.05
2023-04-20T12:45:36.244Z,23.80
2023-04-20T12:48:05.937Z,19.77
2023-04-20T12:50:34.243Z,19.98
2023-04-20T12:53:03.571Z,25.42
2023-04-20T12:55:44.355Z,20.42
2023-04-20T12:58:14.248Z,21.33
2023-04-20T13:00:45.476Z,20.10
2023-04-20T13:03:18.780Z,22.80
2023-04-20T13:05:47.392Z,20.15
2023-04-20T13:08:16.815Z,24.67
2023-04-20T13:10:47.017Z,21.77
2023-04-20T13:13:17.291Z,22.48
2023-04-20T13:15:55.789Z,21.63
2023-04-20T13:18:31.842Z,21.73
2023-04-20T13:21:06.949Z,18.67
2023-04-20T13:23:48.460Z,22.83
2023-04-20T13:26:32.045Z,24.45
2023-04-20T13:29:12.633Z,21.58
2023-04-20T13:31:57.486Z,20.20
2023-04-20T13:34:26.433Z,17.20
2023-04-20T13:37:11.285Z,18.63
2023-04-20T13:40:27.128Z,18.50
2023-04-20T13:43:04.586Z,19.45
2023-04-20T13:45:35.589Z,19.33
2023-04-20T13:48:06.021Z,17.25
2023-04-20T13:50:40.086Z,20.38
2023-04-20T13:53:16.778Z,19.55
2023-04-20T13:55:45.462Z,19.50
2023-04-20T13:58:28.993Z,20.80
2023-04-20T14:00:59.118Z,19.45
2023-04-20T14:03:33.514Z,21.95
2023-04-20T14:06:03.512Z,18.27
2023-04-20T14:08:33.880Z,18.27
2023-04-20T14:11:02.085Z,22.55
2023-04-20T14:13:32.200Z,21.17
2023-04-20T14:16:01.378Z,19.05
2023-04-20T14:18:29.770Z,19.25
2023-04-20T14:21:00.499Z,21.55
2023-04-20T14:23:30.633Z,17.40
2023-04-20T14:25:59.378Z,16.65
2023-04-20T14:28:29.185Z,19.95
2023-04-20T14:31:00.905Z,17.60
2023-04-20T14:33:29.839Z,15.05
2023-04-20T14:35:59.594Z,17.63
2023-04-20T14:38:27.655Z,18.23
2023-04-20T14:40:56.130Z,20.08
2023-04-20T14:43:26.161Z,20.77
2023-04-20T14:45:55.698Z,26.83
2023-04-20T14:48:28.585Z,17.65
2023-04-20T14:50:57.127Z,20.65
2023-04-20T14:53:25.249Z,18.83
2023-04-20T14:55:53.553Z,15.27
2023-04-20T14:58:24.389Z,15.23
2023-04-20T15:00:55.773Z,21.08
2023-04-20T15:03:25.884Z,17.92
2023-04-20T15:05:54.754Z,18.15
2023-04-20T15:08:25.920Z,39.13
2023-04-20T15:10:56.660Z,28.42
2023-04-20T15:13:25.543Z,19.00
2023-04-20T15:15:55.228Z,33.78
2023-04-20T15:18:26.516Z,22.65
2023-04-20T15:20:56.204Z,26.50
2023-04-20T15:23:29.073Z,24.42
2023-04-20T15:25:58.729Z,30.88
2023-04-20T15:28:27.340Z,16.90
2023-04-20T15:30:55.595Z,18.48
2023-04-20T15:33:25.272Z,22.92
2023-04-20T15:35:53.624Z,22.73
2023-04-20T15:38:23.143Z,20.50
2023-04-20T15:40:52.218Z,29.55
2023-04-20T15:43:22.375Z,16.30
2023-04-20T15:45:51.650Z,14.30
2023-04-20T15:48:19.914Z,13.98
2023-04-20T15:50:52.939Z,18.52
2023-04-20T15:53:26.806Z,15.18
2023-04-20T15:55:55.213Z,15.85
2023-04-20T15:58:23.675Z,15.38
2023-04-20T16:01:09.209Z,12.60
2023-04-20T16:03:39.935Z,13.48
2023-04-20T16:06:09.920Z,12.60
2023-04-20T16:08:38.153Z,13.70
2023-04-20T16:11:07.888Z,12.43
2023-04-20T16:13:38.500Z,11.90
2023-04-20T16:16:07.365Z,11.60
2023-04-20T16:18:35.669Z,13.70
2023-04-20T16:21:04.239Z,14.43
2023-04-20T16:23:33.685Z,12.77
2023-04-20T16:26:03.339Z,10.98
2023-04-20T16:28:34.652Z,11.60
2023-04-20T16:31:03.410Z,10.73
2023-04-20T16:33:33.700Z,12.00
2023-04-20T16:36:02.373Z,12.43
2023-04-20T16:38:30.706Z,11.18
2023-04-20T16:41:01.360Z,9.85
2023-04-20T16:43:30.743Z,11.32
2023-04-20T16:46:00.514Z,12.77
2023-04-20T16:48:29.250Z,11.18
2023-04-20T16:50:57.740Z,17.60
2023-04-20T16:53:26.205Z,10.98
2023-04-20T16:55:54.394Z,10.43
2023-04-20T16:58:24.437Z,11.73
2023-04-20T17:00:52.950Z,7.85
2023-04-20T17:03:22.018Z,9.95
2023-04-20T17:05:51.285Z,13.77
2023-04-20T17:08:21.162Z,10.60
2023-04-20T17:10:49.637Z,11.55
2023-04-20T17:13:18.606Z,10.73
2023-04-20T17:15:48.100Z,10.13
2023-04-20T17:18:16.270Z,10.60
2023-04-20T17:20:46.369Z,10.48
2023-04-20T17:23:14.621Z,8.05
2023-04-20T17:25:43.756Z,14.90
2023-04-20T17:28:14.301Z,15.35
2023-04-20T17:30:42.889Z,12.80
2023-04-20T17:33:13.331Z,9.23
2023-04-20T17:35:41.729Z,16.80
2023-04-20T17:38:10.262Z,11.48
2023-04-20T17:40:39.776Z,11.98
2023-04-20T17:43:08.246Z,11.90
2023-04-20T17:45:38.098Z,11.07
2023-04-20T17:48:08.024Z,11.77
2023-04-20T17:50:38.699Z,13.93
2023-04-20T17:53:08.509Z,13.93
2023-04-20T17:55:36.716Z,12.25
2023-04-20T17:58:05.054Z,11.00
2023-04-20T18:00:33.584Z,10.52
2023-04-20T18:03:02.165Z,11.20
2023-04-20T18:05:31.157Z,14.23
2023-04-20T18:08:03.192Z,13.98
2023-04-20T18:10:32.183Z,11.75
2023-04-20T18:13:00.369Z,10.35
2023-04-20T18:15:28.901Z,12.48
2023-04-20T18:17:56.970Z,16.13
2023-04-20T18:20:25.688Z,10.10
2023-04-20T18:22:56.299Z,11.48
2023-04-20T18:25:27.366Z,11.23
2023-04-20T18:27:56.440Z,12.30
2023-04-20T18:30:24.957Z,12.73
2023-04-20T18:32:54.099Z,10.85
2023-04-20T18:35:22.345Z,9.18
2023-04-20T18:37:51.884Z,10.15
2023-04-20T18:40:22.861Z,8.65
2023-04-20T18:42:52.903Z,11.48
2023-04-20T18:45:22.081Z,11.95
2023-04-20T18:47:50.481Z,11.00
2023-04-20T18:50:20.497Z,13.57
2023-04-20T18:52:51.593Z,17.42
2023-04-20T18:55:20.230Z,15.13
2023-04-20T18:57:53.289Z,13.18
2023-04-20T19:00:23.655Z,17.70
2023-04-20T19:02:52.415Z,9.80
2023-04-20T19:05:20.742Z,12.65
2023-04-20T19:07:51.053Z,14.57
2023-04-20T19:10:19.155Z,17.42
2023-04-20T19:12:50.614Z,11.18
2023-04-20T19:15:25.785Z,15.13
2023-04-20T19:17:56.647Z,13.85
2023-04-20T19:20:25.172Z,13.63
2023-04-20T19:22:53.684Z,15.00
2023-04-20T19:25:22.474Z,12.43
2023-04-20T19:27:53.176Z,13.10
2023-04-20T19:30:21.872Z,11.13
2023-04-20T19:33:06.836Z,14.57
2023-04-20T19:35:53.781Z,13.27
2023-04-20T19:38:41.176Z,11.85
2023-04-20T19:41:28.236Z,13.05
2023-04-20T19:43:56.261Z,12.27
2023-04-20T19:46:24.551Z,13.60
2023-04-20T19:48:54.076Z,12.55
2023-04-20T19:51:25.344Z,15.38
2023-04-20T19:53:53.414Z,14.45
2023-04-20T19:56:22.154Z,13.75
2023-04-20T19:58:50.182Z,12.25
2023-04-20T20:01:18.369Z,15.63
2023-04-20T20:03:47.045Z,15.50
2023-04-20T20:06:17.305Z,10.98
2023-04-20T20:08:46.156Z,18.55
2023-04-20T20:11:14.879Z,11.75
2023-04-20T20:13:43.957Z,12.35
2023-04-20T20:16:12.770Z,11.40
2023-04-20T20:18:42.472Z,11.27
2023-04-20T20:21:10.966Z,15.45
2023-04-20T20:23:41.132Z,23.77
2023-04-20T20:26:10.666Z,13.32
2023-04-20T20:28:39.411Z,15.65
2023-04-20T20:31:07.454Z,12.80
2023-04-20T20:33:35.834Z,11.68
2023-04-20T20:36:04.909Z,20.52
2023-04-20T20:38:33.354Z,9.10
2023-04-20T20:41:07.915Z,14.63
2023-04-20T20:43:36.276Z,15.07
2023-04-20T20:46:04.783Z,14.07
2023-04-20T20:48:33.166Z,14.88
2023-04-20T20:51:01.536Z,18.73
2023-04-20T20:53:29.845Z,9.63
2023-04-20T20:55:58.552Z,12.85
2023-04-20T20:58:28.219Z,13.27
2023-04-20T21:00:56.508Z,14.80
2023-04-20T21:03:25.615Z,12.00
2023-04-20T21:05:54.427Z,15.05
2023-04-20T21:08:23.786Z,16.48
2023-04-20T21:10:51.881Z,11.85
2023-04-20T21:13:21.955Z,15.68
2023-04-20T21:15:53.912Z,15.63
2023-04-20T21:18:22.012Z,14.88
2023-04-20T21:20:50.365Z,11.32
2023-04-20T21:23:18.671Z,18.45
2023-04-20T21:25:47.556Z,15.10
2023-04-20T21:28:15.755Z,10.68
2023-04-20T21:30:44.162Z,14.23
2023-04-20T21:33:13.898Z,13.82
2023-04-20T21:35:42.578Z,15.77
2023-04-20T21:38:10.891Z,16.10
2023-04-20T21:40:39.449Z,12.68
2023-04-20T21:43:08.077Z,13.43
2023-04-20T21:45:37.446Z,14.25
2023-04-20T21:48:06.366Z,12.95
2023-04-20T21:50:37.772Z,16.67
2023-04-20T21:53:08.966Z,11.88
2023-04-20T21:55:37.173Z,13.43
2023-04-20T21:58:05.645Z,20.05
2023-04-20T22:00:34.155Z,15.10
2023-04-20T22:03:02.505Z,13.02
2023-04-20T22:05:30.910Z,11.38
2023-04-20T22:08:02.691Z,13.18
2023-04-20T22:10:31.675Z,13.80
2023-04-20T22:13:02.046Z,14.52
2023-04-20T22:15:30.621Z,15.30
2023-04-20T22:18:00.839Z,11.27
2023-04-20T22:20:28.966Z,13.48
2023-04-20T22:22:57.470Z,10.10
2023-04-20T22:25:27.376Z,11.48
2023-04-20T22:27:58.008Z,12.38
2023-04-20T22:30:27.324Z,13.35
2023-04-20T22:32:56.026Z,16.00
2023-04-20T22:35:24.187Z,12.95
2023-04-20T22:37:52.522Z,11.60
2023-04-20T22:40:20.774Z,17.80
2023-04-20T22:42:51.843Z,15.65
2023-04-20T22:45:22.041Z,14.77
2023-04-20T22:47:51.365Z,12.25
2023-04-20T22:50:20.179Z,13.57
2023-04-20T22:52:51.135Z,17.23
2023-04-20T22:58:57.886Z,12.70
2023-04-20T23:01:28.854Z,15.30
2023-04-20T23:04:07.918Z,16.05
2023-04-20T23:06:37.979Z,15.35
2023-04-20T23:09:08.075Z,21.00
2023-04-20T23:11:39.701Z,20.02
2023-04-20T23:14:17.544Z,12.32
2023-04-20T23:16:45.757Z,16.58
2023-04-20T23:19:18.777Z,18.60
2023-04-20T23:21:56.424Z,12.70
2023-04-20T23:24:25.053Z,17.23
2023-04-20T23:26:56.935Z,14.17
2023-04-20T23:29:26.681Z,19.58
2023-04-20T23:31:55.119Z,18.95
2023-04-20T23:34:23.422Z,25.27
2023-04-20T23:36:53.879Z,17.88
2023-04-20T23:39:22.519Z,11.85
2023-04-20T23:41:50.917Z,15.60
2023-04-20T23:44:18.942Z,11.98
2023-04-20T23:46:49.079Z,16.50
2023-04-20T23:49:17.354Z,16.10
2023-04-20T23:51:45.558Z,25.73
2023-04-20T23:54:13.666Z,24.13
2023-04-20T23:56:41.877Z,19.73
2023-04-20T23:59:10.134Z,15.57
